createdAt,value
2023-03-29T00:02:48.223Z,2.05
2023-03-29T00:09:33.961Z,2.13
2023-03-29T00:16:17.349Z,2.53
2023-03-29T00:22:59.712Z,2.92
2023-03-29T00:29:42.154Z,2.13
2023-03-29T00:36:24.452Z,2.55
2023-03-29T00:43:10.683Z,2.30
2023-03-29T00:49:54.258Z,2.53
2023-03-29T00:56:40.474Z,2.67
2023-03-29T01:03:27.722Z,2.53
2023-03-29T01:10:17.254Z,2.50
2023-03-29T01:16:59.869Z,2.55
2023-03-29T01:23:51.007Z,2.20
2023-03-29T01:30:40.366Z,2.28
2023-03-29T01:37:34.847Z,2.50
2023-03-29T01:44:28.574Z,2.38
2023-03-29T01:51:25.492Z,2.20
2023-03-29T01:58:10.356Z,2.17
2023-03-29T02:04:55.006Z,2.60
2023-03-29T02:11:37.850Z,3.00
2023-03-29T02:18:20.499Z,2.97
2023-03-29T02:25:04.700Z,2.90
2023-03-29T02:31:59.497Z,2.97
2023-03-29T02:38:41.818Z,2.78
2023-03-29T02:45:25.670Z,2.78
2023-03-29T02:52:23.694Z,3.63
2023-03-29T02:59:06.107Z,3.05
2023-03-29T03:05:49.080Z,3.13
2023-03-29T03:12:31.601Z,3.00
2023-03-29T03:19:14.467Z,3.03
2023-03-29T03:25:59.305Z,3.55
2023-03-29T03:32:43.581Z,3.50
2023-03-29T03:39:58.543Z,3.22
2023-03-29T03:46:43.328Z,3.45
2023-03-29T03:53:28.368Z,3.45
2023-03-29T04:00:43.202Z,2.85
2023-03-29T04:07:41.354Z,3.20
2023-03-29T04:14:52.533Z,2.85
2023-03-29T04:21:37.450Z,3.22
2023-03-29T04:28:20.279Z,3.22
2023-03-29T04:35:21.915Z,3.08
2023-03-29T04:42:05.150Z,3.05
2023-03-29T04:48:48.695Z,3.72
2023-03-29T04:55:32.235Z,3.92
2023-03-29T05:02:16.957Z,3.35
2023-03-29T05:09:04.813Z,2.60
2023-03-29T05:15:58.093Z,4.30
2023-03-29T05:22:40.979Z,2.83
2023-03-29T05:29:27.099Z,3.58
2023-03-29T05:36:21.376Z,4.70
2023-03-29T05:43:05.798Z,5.43
2023-03-29T05:49:48.480Z,2.40
2023-03-29T05:56:37.124Z,3.00
2023-03-29T06:03:22.261Z,3.88
2023-03-29T06:10:09.580Z,2.58
2023-03-29T06:16:54.978Z,3.22
2023-03-29T06:23:38.023Z,3.47
2023-03-29T06:30:21.401Z,4.13
2023-03-29T06:37:08.634Z,2.83
2023-03-29T06:43:51.371Z,2.03
2023-03-29T06:50:37.678Z,2.72
2023-03-29T06:57:25.678Z,1.90
2023-03-29T07:04:09.938Z,2.67
2023-03-29T07:11:21.973Z,2.35
2023-03-29T07:18:11.227Z,2.80
2023-03-29T07:24:54.193Z,2.67
2023-03-29T07:31:40.652Z,1.83
2023-03-29T07:38:41.660Z,2.42
2023-03-29T07:45:29.888Z,2.38
2023-03-29T07:52:16.886Z,2.33
2023-03-29T07:58:59.570Z,5.40
2023-03-29T08:05:42.319Z,2.22
2023-03-29T08:12:27.134Z,2.03
2023-03-29T08:19:12.101Z,2.63
2023-03-29T08:26:10.679Z,3.13
2023-03-29T08:32:55.405Z,2.85
2023-03-29T08:39:38.801Z,3.00
2023-03-29T08:46:58.874Z,2.85
2023-03-29T08:53:53.196Z,2.08
2023-03-29T09:00:54.451Z,2.25
2023-03-29T09:07:37.335Z,3.03
2023-03-29T09:14:57.216Z,2.03
2023-03-29T09:21:49.352Z,2.00
2023-03-29T09:29:02.760Z,1.80
2023-03-29T09:36:00.290Z,1.92
2023-03-29T09:42:44.271Z,2.00
2023-03-29T09:49:32.160Z,2.20
2023-03-29T09:56:18.942Z,1.95
2023-03-29T10:03:09.342Z,1.90
2023-03-29T10:10:10.315Z,2.17
2023-03-29T10:16:57.404Z,1.90
2023-03-29T10:23:42.666Z,2.13
2023-03-29T10:30:26.013Z,1.90
2023-03-29T10:37:10.171Z,2.30
2023-03-29T10:43:52.912Z,1.90
2023-03-29T10:50:38.077Z,1.65
2023-03-29T10:57:58.956Z,2.03
2023-03-29T11:05:01.532Z,1.80
2023-03-29T11:12:18.913Z,1.60
2023-03-29T11:19:14.894Z,1.90
2023-03-29T11:26:13.538Z,1.70
2023-03-29T11:33:17.145Z,1.70
2023-03-29T11:40:19.909Z,1.70
2023-03-29T11:47:19.981Z,1.65
2023-03-29T11:54:25.103Z,1.83
2023-03-29T12:01:18.599Z,1.80
2023-03-29T12:08:07.114Z,1.85
2023-03-29T12:14:55.384Z,2.10
2023-03-29T12:21:38.295Z,1.90
2023-03-29T12:28:36.640Z,1.60
2023-03-29T12:35:23.065Z,2.33
2023-03-29T12:43:06.742Z,1.80
2023-03-29T12:50:24.225Z,1.63
2023-03-29T12:57:25.882Z,1.88
2023-03-29T13:04:22.608Z,1.50
2023-03-29T13:11:06.460Z,1.70
2023-03-29T13:18:22.512Z,1.60
2023-03-29T13:25:26.210Z,1.50
2023-03-29T13:32:29.943Z,1.63
2023-03-29T13:39:30.872Z,1.27
2023-03-29T13:46:23.575Z,1.60
2023-03-29T13:53:24.848Z,1.80
2023-03-29T14:00:16.107Z,2.22
2023-03-29T14:06:59.360Z,2.08
2023-03-29T14:13:43.179Z,1.40
2023-03-29T14:20:25.917Z,1.90
2023-03-29T14:27:11.923Z,1.88
2023-03-29T14:33:56.527Z,1.40
2023-03-29T14:40:38.897Z,1.77
2023-03-29T14:47:30.154Z,1.65
2023-03-29T14:54:29.414Z,2.33
2023-03-29T15:01:17.301Z,1.92
2023-03-29T15:08:01.567Z,3.25
2023-03-29T15:14:44.004Z,1.52
2023-03-29T15:21:31.155Z,1.98
2023-03-29T15:28:32.930Z,1.65
2023-03-29T15:35:24.605Z,1.67
2023-03-29T15:42:08.619Z,1.58
2023-03-29T15:48:51.165Z,1.73
2023-03-29T15:55:33.457Z,1.70
2023-03-29T16:02:20.188Z,1.63
2023-03-29T16:09:02.804Z,1.60
2023-03-29T16:15:46.190Z,2.00
2023-03-29T16:22:29.391Z,1.98
2023-03-29T16:29:11.869Z,2.20
2023-03-29T16:35:54.251Z,2.10
2023-03-29T16:42:36.572Z,2.55
2023-03-29T16:49:19.033Z,2.40
2023-03-29T16:56:02.733Z,2.20
2023-03-29T17:02:46.226Z,3.25
2023-03-29T17:09:29.814Z,2.10
2023-03-29T17:16:12.452Z,2.20
2023-03-29T17:22:55.998Z,2.63
2023-03-29T17:29:38.447Z,3.15
2023-03-29T17:36:24.042Z,2.92
2023-03-29T17:43:06.692Z,2.33
2023-03-29T17:49:49.001Z,2.38
2023-03-29T17:56:31.921Z,2.30
2023-03-29T18:03:14.682Z,2.72
2023-03-29T18:09:57.789Z,2.60
2023-03-29T18:16:41.327Z,2.95
2023-03-29T18:23:23.846Z,3.10
2023-03-29T18:30:08.425Z,6.53
2023-03-29T18:36:50.816Z,4.07
2023-03-29T18:43:36.144Z,3.35
2023-03-29T18:50:18.701Z,3.90
2023-03-29T18:57:01.225Z,3.30
2023-03-29T19:03:43.796Z,3.50
2023-03-29T19:10:27.338Z,3.38
2023-03-29T19:17:09.729Z,3.10
2023-03-29T19:23:52.858Z,3.13
2023-03-29T19:30:36.029Z,3.47
2023-03-29T19:37:18.426Z,3.90
2023-03-29T19:44:01.020Z,3.78
2023-03-29T19:50:44.804Z,4.22
2023-03-29T19:57:28.215Z,4.25
2023-03-29T20:04:11.738Z,5.20
2023-03-29T20:11:10.172Z,5.32
2023-03-29T20:17:55.341Z,4.75
2023-03-29T20:24:39.600Z,5.22
2023-03-29T20:31:21.942Z,5.15
2023-03-29T20:38:04.226Z,5.47
2023-03-29T20:44:50.360Z,5.13
2023-03-29T20:51:33.047Z,4.32
2023-03-29T20:58:16.190Z,5.00
2023-03-29T21:05:00.130Z,5.53
2023-03-29T21:11:42.581Z,5.57
2023-03-29T21:18:24.932Z,5.60
2023-03-29T21:25:09.995Z,4.75
2023-03-29T21:31:52.338Z,4.93
2023-03-29T21:38:34.687Z,5.20
2023-03-29T21:45:17.080Z,5.85
2023-03-29T21:51:59.629Z,4.75
2023-03-29T21:58:42.209Z,4.82
2023-03-29T22:05:26.063Z,5.38
2023-03-29T22:12:09.825Z,5.03
2023-03-29T22:18:54.066Z,4.70
2023-03-29T22:25:37.356Z,3.80
2023-03-29T22:32:19.658Z,3.65
2023-03-29T22:39:01.936Z,3.42
2023-03-29T22:45:44.291Z,3.67
2023-03-29T22:52:26.614Z,2.92
2023-03-29T22:59:09.021Z,2.45
2023-03-29T23:05:52.506Z,2.45
2023-03-29T23:12:37.749Z,2.28
2023-03-29T23:19:20.351Z,2.67
2023-03-29T23:26:02.761Z,2.50
2023-03-29T23:32:45.581Z,2.72
2023-03-29T23:39:28.636Z,3.10
2023-03-29T23:46:16.725Z,2.50
2023-03-29T23:52:59.661Z,3.05
2023-03-29T23:59:42.512Z,2.83
